createdAt,value
2022-09-27T00:00:50.988Z,12.65
2022-09-27T00:03:59.811Z,12.82
2022-09-27T00:07:07.988Z,12.76
2022-09-27T00:10:16.831Z,12.71
2022-09-27T00:13:24.987Z,12.68
2022-09-27T00:16:41.905Z,12.77
2022-09-27T00:19:56.970Z,12.84
2022-09-27T00:22:58.830Z,12.85
2022-09-27T00:26:15.005Z,12.84
2022-09-27T00:29:23.798Z,12.93
2022-09-27T00:32:32.006Z,12.95
2022-09-27T00:35:40.537Z,13.07
2022-09-27T00:38:55.007Z,13.05
2022-09-27T00:42:23.136Z,12.94
2022-09-27T00:45:31.568Z,12.84
2022-09-27T00:48:43.007Z,12.86
2022-09-27T00:51:57.783Z,12.83
2022-09-27T00:55:19.199Z,12.77
2022-09-27T00:58:33.056Z,12.76
2022-09-27T01:01:59.460Z,12.77
2022-09-27T01:05:16.000Z,12.71
2022-09-27T01:08:24.012Z,12.79
2022-09-27T01:11:45.921Z,12.73
2022-09-27T01:15:28.149Z,12.81
2022-09-27T01:19:05.796Z,12.83
2022-09-27T01:22:30.017Z,12.22
2022-09-27T01:26:35.286Z,12.77
2022-09-27T01:30:16.736Z,12.74
2022-09-27T01:33:50.011Z,12.62
2022-09-27T01:37:37.023Z,12.52
2022-09-27T01:40:51.178Z,12.31
2022-09-27T01:44:11.020Z,12.37
2022-09-27T01:47:24.032Z,12.49
2022-09-27T01:50:38.855Z,12.46
2022-09-27T01:53:58.762Z,12.51
2022-09-27T01:57:03.039Z,12.54
2022-09-27T02:00:19.087Z,12.60
2022-09-27T02:03:48.029Z,12.54
2022-09-27T02:06:57.532Z,12.41
2022-09-27T02:10:18.062Z,12.32
2022-09-27T02:13:31.051Z,12.21
2022-09-27T02:16:50.584Z,11.91
2022-09-27T02:20:25.280Z,12.14
2022-09-27T02:23:43.579Z,12.08
2022-09-27T02:27:10.263Z,11.94
2022-09-27T02:30:26.079Z,11.76
2022-09-27T02:33:40.459Z,11.84
2022-09-27T02:36:56.035Z,11.72
2022-09-27T02:40:05.093Z,11.18
2022-09-27T02:43:14.038Z,11.67
2022-09-27T02:47:09.046Z,11.54
2022-09-27T02:50:38.007Z,11.63
2022-09-27T02:54:13.048Z,11.63
2022-09-27T02:58:07.095Z,11.58
2022-09-27T03:01:48.142Z,11.50
2022-09-27T03:05:05.921Z,11.52
2022-09-27T03:08:21.074Z,11.43
2022-09-27T03:11:29.063Z,11.45
2022-09-27T03:14:44.280Z,11.55
2022-09-27T03:18:00.046Z,11.47
2022-09-27T03:21:08.032Z,11.60
2022-09-27T03:24:23.058Z,11.49
2022-09-27T03:27:31.849Z,11.58
2022-09-27T03:30:41.101Z,11.62
2022-09-27T03:33:49.579Z,11.68
2022-09-27T03:36:59.052Z,11.90
2022-09-27T03:44:23.063Z,11.94
2022-09-27T03:47:38.036Z,12.14
2022-09-27T03:50:39.756Z,12.12
2022-09-27T03:54:01.060Z,12.19
2022-09-27T03:57:03.356Z,12.23
2022-09-27T04:00:37.128Z,12.22
2022-09-27T04:03:46.235Z,12.27
2022-09-27T04:06:55.063Z,12.15
2022-09-27T04:10:04.987Z,12.25
2022-09-27T04:13:44.092Z,12.11
2022-09-27T04:17:19.072Z,12.11
2022-09-27T04:20:27.736Z,12.21
2022-09-27T04:23:42.192Z,12.21
2022-09-27T04:26:44.348Z,12.16
2022-09-27T04:30:18.084Z,12.21
2022-09-27T04:33:34.054Z,12.16
2022-09-27T04:36:36.579Z,12.14
2022-09-27T04:39:51.059Z,12.06
2022-09-27T04:42:52.781Z,12.08
2022-09-27T04:46:07.119Z,12.07
2022-09-27T04:49:22.071Z,12.17
2022-09-27T04:52:30.060Z,12.11
2022-09-27T04:55:38.587Z,12.00
2022-09-27T04:58:53.052Z,12.07
2022-09-27T05:02:01.100Z,12.10
2022-09-27T05:05:16.099Z,12.09
2022-09-27T05:08:17.801Z,12.06
2022-09-27T05:11:33.071Z,12.17
2022-09-27T05:15:16.081Z,12.06
2022-09-27T05:18:18.331Z,12.12
2022-09-27T05:21:33.093Z,12.14
2022-09-27T05:24:41.775Z,12.15
2022-09-27T05:27:50.139Z,12.08
2022-09-27T05:31:05.194Z,12.22
2022-09-27T05:34:13.598Z,12.34
2022-09-27T05:37:22.206Z,12.42
2022-09-27T05:40:42.339Z,12.56
2022-09-27T05:43:51.088Z,12.48
2022-09-27T05:47:02.092Z,12.57
2022-09-27T05:50:20.202Z,12.53
2022-09-27T05:53:48.128Z,12.53
2022-09-27T05:57:03.127Z,12.29
2022-09-27T06:00:12.298Z,12.55
2022-09-27T06:03:20.161Z,12.49
2022-09-27T06:06:37.888Z,12.51
2022-09-27T06:09:52.143Z,12.37
2022-09-27T06:13:02.881Z,12.46
2022-09-27T06:17:00.233Z,12.67
2022-09-27T06:20:21.891Z,12.77
2022-09-27T06:23:52.066Z,12.84
2022-09-27T06:31:38.325Z,13.39
2022-09-27T06:43:36.987Z,13.36
2022-09-27T06:51:12.523Z,13.79
2022-09-27T06:54:26.644Z,13.69
2022-09-27T06:58:42.964Z,13.58
2022-09-27T07:02:26.980Z,13.84
2022-09-27T07:14:31.301Z,13.66
2022-09-27T07:17:55.244Z,13.85
2022-09-27T07:21:23.726Z,14.00
2022-09-27T07:32:26.856Z,14.40
2022-09-27T07:35:52.181Z,14.87
2022-09-27T07:39:08.735Z,14.69
2022-09-27T07:42:33.812Z,15.35
2022-09-27T07:46:05.865Z,15.71
2022-09-27T07:56:58.487Z,15.58
2022-09-27T08:38:25.227Z,15.21
2022-09-27T09:02:16.162Z,15.21
2022-09-27T09:05:46.376Z,15.04
2022-09-27T09:09:14.232Z,15.23
2022-09-27T09:20:55.751Z,15.03
2022-09-27T09:25:12.368Z,14.96
2022-09-27T09:29:13.176Z,15.10
2022-09-27T09:37:40.343Z,15.05
2022-09-27T09:41:00.855Z,15.28
2022-09-27T09:44:34.183Z,15.51
2022-09-27T09:47:51.448Z,15.59
2022-09-27T09:51:55.220Z,15.39
2022-09-27T09:55:13.216Z,15.44
2022-09-27T09:58:57.172Z,15.55
2022-09-27T10:02:32.398Z,15.38
2022-09-27T10:05:41.160Z,15.33
2022-09-27T10:08:50.065Z,15.05
2022-09-27T10:12:05.167Z,15.08
2022-09-27T10:15:14.282Z,14.91
2022-09-27T10:21:59.192Z,15.01
2022-09-27T10:25:53.165Z,15.04
2022-09-27T10:29:01.206Z,15.12
2022-09-27T10:32:23.962Z,15.10
2022-09-27T10:35:48.467Z,14.89
2022-09-27T10:39:00.186Z,15.16
2022-09-27T10:50:50.880Z,15.02
2022-09-27T11:10:37.988Z,14.78
2022-09-27T11:27:02.347Z,15.81
2022-09-27T11:30:16.292Z,15.89
2022-09-27T11:33:52.209Z,15.79
2022-09-27T11:37:13.960Z,15.98
2022-09-27T11:40:53.560Z,16.06
2022-09-27T11:44:21.984Z,16.01
2022-09-27T11:48:40.516Z,16.03
2022-09-27T11:52:35.221Z,15.98
2022-09-27T11:56:34.259Z,16.29
2022-09-27T12:00:03.715Z,16.51
2022-09-27T12:03:46.266Z,16.73
2022-09-27T12:15:33.377Z,16.65
2022-09-27T12:18:51.804Z,16.10
2022-09-27T12:21:59.627Z,16.73
2022-09-27T12:25:26.346Z,16.67
2022-09-27T12:29:54.608Z,16.50
2022-09-27T12:37:26.231Z,16.66
2022-09-27T12:40:46.325Z,16.41
2022-09-27T12:44:01.226Z,16.00
2022-09-27T12:55:53.222Z,15.66
2022-09-27T13:03:33.242Z,16.82
2022-09-27T13:11:15.280Z,16.76
2022-09-27T13:18:36.364Z,16.96
2022-09-27T13:22:03.299Z,17.08
2022-09-27T13:25:34.907Z,17.41
2022-09-27T13:29:07.257Z,17.54
2022-09-27T13:32:28.356Z,17.61
2022-09-27T13:36:07.645Z,17.55
2022-09-27T13:39:32.335Z,17.39
2022-09-27T13:43:04.396Z,17.54
2022-09-27T13:50:26.340Z,17.48
2022-09-27T13:53:48.790Z,17.40
2022-09-27T13:57:32.576Z,17.20
2022-09-27T14:01:04.015Z,17.32
2022-09-27T14:04:31.305Z,17.28
2022-09-27T14:08:04.693Z,17.15
2022-09-27T14:11:26.971Z,17.22
2022-09-27T14:14:46.040Z,17.27
2022-09-27T14:18:16.698Z,17.27
2022-09-27T14:21:45.355Z,17.01
2022-09-27T14:25:02.325Z,16.17
2022-09-27T14:28:37.872Z,15.09
2022-09-27T14:39:09.311Z,14.23
2022-09-27T14:42:27.253Z,14.28
2022-09-27T14:45:38.329Z,14.42
2022-09-27T14:48:53.267Z,14.45
2022-09-27T14:52:11.309Z,14.24
2022-09-27T14:55:20.567Z,14.54
2022-09-27T14:58:47.792Z,14.00
2022-09-27T15:02:25.520Z,14.48
2022-09-27T15:05:35.619Z,14.61
2022-09-27T15:12:41.327Z,14.84
2022-09-27T15:28:36.671Z,14.37
2022-09-27T15:32:21.198Z,14.26
2022-09-27T15:35:59.032Z,14.03
2022-09-27T15:43:58.705Z,13.62
2022-09-27T15:51:58.553Z,13.34
2022-09-27T15:55:19.498Z,13.29
2022-09-27T15:58:24.120Z,13.19
2022-09-27T16:01:46.382Z,13.17
2022-09-27T16:05:12.312Z,13.20
2022-09-27T16:12:29.456Z,13.28
2022-09-27T16:15:39.553Z,13.22
2022-09-27T16:19:05.492Z,13.23
2022-09-27T16:22:14.110Z,13.25
2022-09-27T16:25:31.104Z,12.91
2022-09-27T16:28:48.345Z,13.20
2022-09-27T16:32:40.528Z,13.28
2022-09-27T16:35:59.356Z,13.26
2022-09-27T16:39:07.362Z,13.24
2022-09-27T16:42:15.988Z,12.98
2022-09-27T16:45:32.471Z,13.18
2022-09-27T16:48:37.431Z,13.22
2022-09-27T16:51:52.332Z,13.21
2022-09-27T16:54:54.027Z,13.28
2022-09-27T16:58:08.336Z,13.38
2022-09-27T17:01:23.458Z,13.38
2022-09-27T17:04:35.410Z,13.37
2022-09-27T17:15:57.410Z,13.26
2022-09-27T17:19:23.876Z,12.92
2022-09-27T17:22:38.387Z,13.25
2022-09-27T17:25:47.014Z,13.25
2022-09-27T17:29:32.795Z,12.92
2022-09-27T17:32:49.058Z,13.02
2022-09-27T17:44:27.352Z,13.14
2022-09-27T17:48:21.620Z,13.12
2022-09-27T17:51:30.015Z,13.14
2022-09-27T17:58:59.996Z,13.14
2022-09-27T18:02:08.260Z,12.85
2022-09-27T18:05:16.399Z,12.68
2022-09-27T18:08:34.352Z,13.08
2022-09-27T18:11:43.543Z,13.09
2022-09-27T18:14:51.371Z,12.77
2022-09-27T18:18:27.931Z,12.95
2022-09-27T18:21:42.380Z,12.70
2022-09-27T18:24:44.044Z,12.58
2022-09-27T18:28:36.435Z,13.03
2022-09-27T18:31:54.578Z,12.75
2022-09-27T18:34:58.835Z,13.02
2022-09-27T18:38:36.381Z,13.02
2022-09-27T18:42:11.723Z,12.99
2022-09-27T18:52:56.009Z,12.95
2022-09-27T18:56:12.363Z,12.90
2022-09-27T18:59:27.392Z,12.94
2022-09-27T19:02:36.012Z,12.85
2022-09-27T19:05:44.394Z,12.95
2022-09-27T19:08:57.186Z,12.94
2022-09-27T19:12:11.540Z,13.00
2022-09-27T19:15:26.436Z,13.01
2022-09-27T19:18:39.254Z,12.99
2022-09-27T19:21:47.359Z,12.80
2022-09-27T19:24:56.472Z,13.07
2022-09-27T19:28:27.402Z,13.08
2022-09-27T19:31:31.443Z,13.08
2022-09-27T19:34:46.379Z,13.01
2022-09-27T19:38:20.369Z,13.10
2022-09-27T19:41:29.396Z,13.10
2022-09-27T19:44:44.753Z,13.11
2022-09-27T19:48:30.416Z,12.84
2022-09-27T19:51:32.218Z,13.12
2022-09-27T19:54:47.405Z,13.13
2022-09-27T19:58:31.068Z,12.84
2022-09-27T20:01:52.400Z,13.01
2022-09-27T20:05:04.988Z,12.80
2022-09-27T20:08:28.457Z,12.96
2022-09-27T20:11:30.250Z,13.10
2022-09-27T20:14:47.461Z,13.16
2022-09-27T20:18:30.267Z,12.75
2022-09-27T20:21:45.383Z,13.18
2022-09-27T20:24:54.080Z,12.89
2022-09-27T20:28:26.609Z,13.14
2022-09-27T20:32:09.088Z,13.14
2022-09-27T20:35:18.405Z,13.16
2022-09-27T20:38:35.158Z,13.17
2022-09-27T20:41:46.399Z,13.20
2022-09-27T20:45:01.719Z,13.23
2022-09-27T20:48:34.416Z,12.98
2022-09-27T20:51:44.928Z,13.18
2022-09-27T20:54:59.633Z,12.87
2022-09-27T20:58:18.161Z,13.03
2022-09-27T21:01:34.453Z,13.02
2022-09-27T21:04:49.432Z,12.94
2022-09-27T21:08:22.749Z,12.86
2022-09-27T21:11:39.384Z,12.89
2022-09-27T21:14:54.419Z,12.65
2022-09-27T21:18:21.560Z,13.01
2022-09-27T21:21:37.362Z,12.72
2022-09-27T21:24:45.916Z,12.97
2022-09-27T21:28:26.388Z,12.47
2022-09-27T21:31:35.361Z,12.63
2022-09-27T21:34:50.497Z,12.64
2022-09-27T21:38:20.508Z,12.53
2022-09-27T21:41:35.394Z,12.51
2022-09-27T21:44:50.615Z,12.36
2022-09-27T21:51:53.416Z,12.56
2022-09-27T21:55:08.406Z,12.59
2022-09-27T21:58:20.568Z,12.55
2022-09-27T22:01:38.505Z,12.43
2022-09-27T22:04:53.581Z,12.32
2022-09-27T22:08:30.480Z,12.58
2022-09-27T22:11:49.404Z,12.56
2022-09-27T22:14:57.985Z,12.58
2022-09-27T22:18:26.567Z,12.44
2022-09-27T22:21:45.390Z,12.47
2022-09-27T22:24:53.953Z,12.14
2022-09-27T22:28:27.452Z,11.98
2022-09-27T22:31:43.526Z,12.05
2022-09-27T22:34:52.019Z,12.17
2022-09-27T22:38:26.433Z,11.74
2022-09-27T22:41:41.456Z,12.00
2022-09-27T22:44:56.788Z,12.00
2022-09-27T22:48:26.424Z,11.93
2022-09-27T22:51:41.478Z,12.03
2022-09-27T22:54:56.450Z,11.79
2022-09-27T22:58:19.034Z,11.97
2022-09-27T23:01:33.432Z,11.99
2022-09-27T23:04:35.213Z,11.97
2022-09-27T23:08:21.305Z,11.68
2022-09-27T23:11:31.960Z,11.86
2022-09-27T23:14:42.631Z,11.82
2022-09-27T23:18:29.921Z,11.79
2022-09-27T23:21:44.488Z,11.66
2022-09-27T23:24:46.128Z,11.56
2022-09-27T23:28:18.627Z,11.82
2022-09-27T23:31:37.477Z,11.76
2022-09-27T23:34:45.419Z,11.77
2022-09-27T23:38:30.875Z,11.80
2022-09-27T23:41:45.442Z,11.86
2022-09-27T23:44:47.186Z,11.84
2022-09-27T23:48:27.487Z,11.86
2022-09-27T23:51:35.986Z,11.65
2022-09-27T23:54:47.464Z,11.74
2022-09-27T23:58:21.040Z,11.40
